sensor_id;sensor_type;location;lat;lon;timestamp;temperature;humidity
67165;SHT31;54093;50.014;19.984;2023-04-22T00:02:24;7.85;69.42
67165;SHT31;54093;50.014;19.984;2023-04-22T00:11:46;7.77;69.94
67165;SHT31;54093;50.014;19.984;2023-04-22T00:21:07;7.55;70.99
67165;SHT31;54093;50.014;19.984;2023-04-22T00:30:28;7.28;71.51
67165;SHT31;54093;50.014;19.984;2023-04-22T00:39:49;7.17;71.72
67165;SHT31;54093;50.014;19.984;2023-04-22T00:49:10;7.16;71.60
67165;SHT31;54093;50.014;19.984;2023-04-22T00:58:31;7.17;71.47
67165;SHT31;54093;50.014;19.984;2023-04-22T01:07:53;7.24;71.12
67165;SHT31;54093;50.014;19.984;2023-04-22T01:17:15;7.14;71.33
67165;SHT31;54093;50.014;19.984;2023-04-22T01:26:36;6.91;71.43
67165;SHT31;54093;50.014;19.984;2023-04-22T01:35:57;6.69;72.14
67165;SHT31;54093;50.014;19.984;2023-04-22T01:45:18;6.69;72.15
67165;SHT31;54093;50.014;19.984;2023-04-22T01:54:40;6.55;71.82
67165;SHT31;54093;50.014;19.984;2023-04-22T02:04:01;6.49;71.67
67165;SHT31;54093;50.014;19.984;2023-04-22T02:13:22;6.18;72.25
67165;SHT31;54093;50.014;19.984;2023-04-22T02:22:43;6.10;72.09
67165;SHT31;54093;50.014;19.984;2023-04-22T02:32:03;6.16;72.54
67165;SHT31;54093;50.014;19.984;2023-04-22T02:41:24;6.16;71.89
67165;SHT31;54093;50.014;19.984;2023-04-22T02:50:45;6.11;71.82
67165;SHT31;54093;50.014;19.984;2023-04-22T03:00:07;5.99;72.04
67165;SHT31;54093;50.014;19.984;2023-04-22T03:09:28;5.89;71.44
67165;SHT31;54093;50.014;19.984;2023-04-22T03:18:49;5.76;71.87
67165;SHT31;54093;50.014;19.984;2023-04-22T03:28:10;5.80;71.81
67165;SHT31;54093;50.014;19.984;2023-04-22T03:37:31;5.62;72.41
67165;SHT31;54093;50.014;19.984;2023-04-22T03:46:52;5.68;72.82
67165;SHT31;54093;50.014;19.984;2023-04-22T03:56:13;5.45;72.75
67165;SHT31;54093;50.014;19.984;2023-04-22T04:05:34;5.39;72.99
67165;SHT31;54093;50.014;19.984;2023-04-22T04:14:55;5.30;74.32
67165;SHT31;54093;50.014;19.984;2023-04-22T04:24:16;5.44;73.99
67165;SHT31;54093;50.014;19.984;2023-04-22T04:33:37;5.52;73.59
67165;SHT31;54093;50.014;19.984;2023-04-22T04:42:58;5.54;73.77
67165;SHT31;54093;50.014;19.984;2023-04-22T04:52:22;5.63;73.88
67165;SHT31;54093;50.014;19.984;2023-04-22T05:01:43;5.95;73.31
67165;SHT31;54093;50.014;19.984;2023-04-22T05:11:03;6.37;72.24
67165;SHT31;54093;50.014;19.984;2023-04-22T05:20:24;6.76;72.21
67165;SHT31;54093;50.014;19.984;2023-04-22T05:29:45;7.34;72.97
67165;SHT31;54093;50.014;19.984;2023-04-22T05:39:06;8.28;73.62
67165;SHT31;54093;50.014;19.984;2023-04-22T05:48:27;9.57;70.92
67165;SHT31;54093;50.014;19.984;2023-04-22T05:57:48;10.76;68.99
67165;SHT31;54093;50.014;19.984;2023-04-22T06:07:11;12.18;65.44
67165;SHT31;54093;50.014;19.984;2023-04-22T06:16:32;13.12;59.64
67165;SHT31;54093;50.014;19.984;2023-04-22T06:25:53;14.22;57.54
67165;SHT31;54093;50.014;19.984;2023-04-22T06:35:14;15.02;46.89
67165;SHT31;54093;50.014;19.984;2023-04-22T06:44:35;14.29;49.19
67165;SHT31;54093;50.014;19.984;2023-04-22T06:53:56;15.45;46.00
67165;SHT31;54093;50.014;19.984;2023-04-22T07:03:18;16.90;45.81
67165;SHT31;54093;50.014;19.984;2023-04-22T07:12:39;18.32;44.14
67165;SHT31;54093;50.014;19.984;2023-04-22T07:22:00;19.18;38.63
67165;SHT31;54093;50.014;19.984;2023-04-22T07:31:22;19.49;36.51
67165;SHT31;54093;50.014;19.984;2023-04-22T07:40:43;18.92;43.26
67165;SHT31;54093;50.014;19.984;2023-04-22T07:50:05;19.42;41.54
67165;SHT31;54093;50.014;19.984;2023-04-22T07:59:26;20.20;40.24
67165;SHT31;54093;50.014;19.984;2023-04-22T08:08:47;21.82;33.70
67165;SHT31;54093;50.014;19.984;2023-04-22T08:18:08;21.74;32.04
67165;SHT31;54093;50.014;19.984;2023-04-22T08:27:28;21.65;34.58
67165;SHT31;54093;50.014;19.984;2023-04-22T08:36:50;21.59;34.16
67165;SHT31;54093;50.014;19.984;2023-04-22T08:46:11;21.83;31.91
67165;SHT31;54093;50.014;19.984;2023-04-22T08:55:33;23.01;28.07
67165;SHT31;54093;50.014;19.984;2023-04-22T09:04:55;23.02;27.80
67165;SHT31;54093;50.014;19.984;2023-04-22T09:14:16;23.59;26.35
67165;SHT31;54093;50.014;19.984;2023-04-22T09:23:52;23.73;26.60
67165;SHT31;54093;50.014;19.984;2023-04-22T09:33:13;23.39;28.28
67165;SHT31;54093;50.014;19.984;2023-04-22T09:42:47;24.28;27.42
67165;SHT31;54093;50.014;19.984;2023-04-22T09:52:07;24.39;26.41
67165;SHT31;54093;50.014;19.984;2023-04-22T10:01:36;24.17;26.74
67165;SHT31;54093;50.014;19.984;2023-04-22T10:10:58;24.18;26.51
67165;SHT31;54093;50.014;19.984;2023-04-22T10:20:20;24.36;26.13
67165;SHT31;54093;50.014;19.984;2023-04-22T10:29:43;24.82;26.03
67165;SHT31;54093;50.014;19.984;2023-04-22T10:48:47;24.28;24.97
67165;SHT31;54093;50.014;19.984;2023-04-22T10:58:18;24.49;24.05
67165;SHT31;54093;50.014;19.984;2023-04-22T11:07:40;24.38;26.65
67165;SHT31;54093;50.014;19.984;2023-04-22T11:17:01;24.07;25.37
67165;SHT31;54093;50.014;19.984;2023-04-22T11:26:33;23.78;25.93
67165;SHT31;54093;50.014;19.984;2023-04-22T11:35:54;23.93;26.28
67165;SHT31;54093;50.014;19.984;2023-04-22T11:45:17;24.45;25.22
67165;SHT31;54093;50.014;19.984;2023-04-22T11:54:38;24.15;22.67
67165;SHT31;54093;50.014;19.984;2023-04-22T12:04:00;23.81;25.14
67165;SHT31;54093;50.014;19.984;2023-04-22T12:22:59;24.25;26.69
67165;SHT31;54093;50.014;19.984;2023-04-22T12:32:21;24.21;25.03
67165;SHT31;54093;50.014;19.984;2023-04-22T12:41:43;24.32;26.83
67165;SHT31;54093;50.014;19.984;2023-04-22T12:51:05;24.30;26.60
67165;SHT31;54093;50.014;19.984;2023-04-22T13:00:26;24.30;25.90
67165;SHT31;54093;50.014;19.984;2023-04-22T13:09:51;24.21;26.56
67165;SHT31;54093;50.014;19.984;2023-04-22T13:19:17;24.05;26.96
67165;SHT31;54093;50.014;19.984;2023-04-22T13:28:53;23.91;27.21
67165;SHT31;54093;50.014;19.984;2023-04-22T13:38:18;23.98;27.55
67165;SHT31;54093;50.014;19.984;2023-04-22T13:47:40;23.96;27.10
67165;SHT31;54093;50.014;19.984;2023-04-22T13:57:00;23.97;26.01
67165;SHT31;54093;50.014;19.984;2023-04-22T14:06:25;24.01;27.05
67165;SHT31;54093;50.014;19.984;2023-04-22T14:15:46;23.88;26.07
67165;SHT31;54093;50.014;19.984;2023-04-22T14:25:10;23.46;26.60
67165;SHT31;54093;50.014;19.984;2023-04-22T14:34:31;23.43;27.42
67165;SHT31;54093;50.014;19.984;2023-04-22T14:43:51;23.16;26.56
67165;SHT31;54093;50.014;19.984;2023-04-22T14:53:12;22.71;26.52
67165;SHT31;54093;50.014;19.984;2023-04-22T15:02:33;22.36;27.53
67165;SHT31;54093;50.014;19.984;2023-04-22T15:11:55;21.93;27.61
67165;SHT31;54093;50.014;19.984;2023-04-22T15:21:16;21.72;29.28
67165;SHT31;54093;50.014;19.984;2023-04-22T15:30:37;21.49;30.30
67165;SHT31;54093;50.014;19.984;2023-04-22T15:40:00;21.27;30.13
67165;SHT31;54093;50.014;19.984;2023-04-22T15:49:22;21.01;30.61
67165;SHT31;54093;50.014;19.984;2023-04-22T15:58:43;20.68;30.74
67165;SHT31;54093;50.014;19.984;2023-04-22T16:08:05;20.36;31.62
67165;SHT31;54093;50.014;19.984;2023-04-22T16:17:25;20.17;31.91
67165;SHT31;54093;50.014;19.984;2023-04-22T16:26:46;19.80;32.36
67165;SHT31;54093;50.014;19.984;2023-04-22T16:36:07;19.49;33.39
67165;SHT31;54093;50.014;19.984;2023-04-22T16:45:30;19.29;34.27
67165;SHT31;54093;50.014;19.984;2023-04-22T16:54:51;19.14;34.34
67165;SHT31;54093;50.014;19.984;2023-04-22T17:04:12;18.94;36.95
67165;SHT31;54093;50.014;19.984;2023-04-22T17:13:33;18.71;37.15
67165;SHT31;54093;50.014;19.984;2023-04-22T17:22:54;18.47;37.78
67165;SHT31;54093;50.014;19.984;2023-04-22T17:32:15;18.29;40.23
67165;SHT31;54093;50.014;19.984;2023-04-22T17:41:36;17.99;41.63
67165;SHT31;54093;50.014;19.984;2023-04-22T17:50:57;17.81;41.89
67165;SHT31;54093;50.014;19.984;2023-04-22T18:00:21;17.52;42.04
67165;SHT31;54093;50.014;19.984;2023-04-22T18:09:42;17.24;41.85
67165;SHT31;54093;50.014;19.984;2023-04-22T18:19:03;16.96;44.17
67165;SHT31;54093;50.014;19.984;2023-04-22T18:28:26;16.68;43.69
67165;SHT31;54093;50.014;19.984;2023-04-22T18:37:47;16.35;45.10
67165;SHT31;54093;50.014;19.984;2023-04-22T18:47:08;15.90;47.48
67165;SHT31;54093;50.014;19.984;2023-04-22T18:56:29;15.42;48.22
67165;SHT31;54093;50.014;19.984;2023-04-22T19:05:52;15.27;48.70
67165;SHT31;54093;50.014;19.984;2023-04-22T19:15:13;15.09;50.09
67165;SHT31;54093;50.014;19.984;2023-04-22T19:24:35;14.87;49.11
67165;SHT31;54093;50.014;19.984;2023-04-22T19:33:57;14.67;50.23
67165;SHT31;54093;50.014;19.984;2023-04-22T19:43:18;14.57;49.84
67165;SHT31;54093;50.014;19.984;2023-04-22T19:52:40;14.43;49.91
67165;SHT31;54093;50.014;19.984;2023-04-22T20:02:01;14.34;47.28
67165;SHT31;54093;50.014;19.984;2023-04-22T20:11:23;14.40;44.40
67165;SHT31;54093;50.014;19.984;2023-04-22T20:20:50;14.39;45.36
67165;SHT31;54093;50.014;19.984;2023-04-22T20:30:12;14.30;44.44
67165;SHT31;54093;50.014;19.984;2023-04-22T20:39:37;14.18;49.03
67165;SHT31;54093;50.014;19.984;2023-04-22T20:48:58;13.75;51.53
67165;SHT31;54093;50.014;19.984;2023-04-22T20:58:20;13.17;51.68
67165;SHT31;54093;50.014;19.984;2023-04-22T21:07:42;12.96;53.17
67165;SHT31;54093;50.014;19.984;2023-04-22T21:17:12;12.74;55.06
67165;SHT31;54093;50.014;19.984;2023-04-22T21:26:36;12.58;53.92
67165;SHT31;54093;50.014;19.984;2023-04-22T21:35:59;12.26;56.54
67165;SHT31;54093;50.014;19.984;2023-04-22T21:45:20;12.10;58.70
67165;SHT31;54093;50.014;19.984;2023-04-22T21:54:41;11.90;58.30
67165;SHT31;54093;50.014;19.984;2023-04-22T22:04:02;11.73;58.07
67165;SHT31;54093;50.014;19.984;2023-04-22T22:13:23;11.48;59.00
67165;SHT31;54093;50.014;19.984;2023-04-22T22:22:46;11.22;59.27
67165;SHT31;54093;50.014;19.984;2023-04-22T22:32:07;10.89;60.51
67165;SHT31;54093;50.014;19.984;2023-04-22T22:41:28;10.67;62.29
67165;SHT31;54093;50.014;19.984;2023-04-22T22:50:49;10.14;63.34
67165;SHT31;54093;50.014;19.984;2023-04-22T23:00:10;10.50;63.47
67165;SHT31;54093;50.014;19.984;2023-04-22T23:09:32;10.53;62.63
67165;SHT31;54093;50.014;19.984;2023-04-22T23:18:53;10.35;62.93
67165;SHT31;54093;50.014;19.984;2023-04-22T23:28:15;10.16;62.83
67165;SHT31;54093;50.014;19.984;2023-04-22T23:37:36;9.97;64.51
67165;SHT31;54093;50.014;19.984;2023-04-22T23:46:57;9.83;65.16
67165;SHT31;54093;50.014;19.984;2023-04-22T23:56:19;9.70;64.29
